Terminal Aerodrome Forecast
Issued by NWS Chicago, IL

Home | Current Version | Previous Version | Text Only | Print | Product List | Glossary Off
Versions: 1 2 3 4 5 6 7 8 9 10 11 12 13 14 15 16 17 18 19 20 21 22 23 24 25 26 27 28 29 30 31 32 33

000
FTUS43 KLOT 282320
TAFRFD
TAF
KRFD 282320Z 2900/2924 20008KT P6SM BKN070 BKN100
     FM290400 20008KT P6SM VCSH BKN070 BKN100
     FM290800 22009KT P6SM VCTS SCT020 OVC040CB PROB30 2909/2911 3SM
      TSRA OVC030CB
     FM291200 29011G16KT P6SM SCT040 BKN140
     FM291800 29013G20KT P6SM SCT150=

USA.gov is the U.S. government's official web portal to all federal, state and local government web resources and services.